createdAt,value
2017-12-02T00:01:04.601Z,0.30
2017-12-02T00:03:31.351Z,0.20
2017-12-02T00:05:58.077Z,0.20
2017-12-02T00:08:24.845Z,0.20
2017-12-02T00:10:51.604Z,0.10
2017-12-02T00:13:18.370Z,0.10
2017-12-02T00:15:45.870Z,0.00
2017-12-02T00:18:12.652Z,0.00
2017-12-02T00:20:39.376Z,0.00
2017-12-02T00:23:06.115Z,0.00
2017-12-02T00:25:32.895Z,0.00
2017-12-02T00:28:00.393Z,0.00
2017-12-02T00:30:27.144Z,-0.10
2017-12-02T00:32:53.892Z,0.00
2017-12-02T00:35:20.637Z,0.00
2017-12-02T00:37:47.374Z,0.00
2017-12-02T00:40:14.111Z,0.00
2017-12-02T00:42:40.851Z,0.00
2017-12-02T00:45:07.624Z,0.00
2017-12-02T00:47:35.174Z,0.00
2017-12-02T00:50:02.702Z,0.00
2017-12-02T00:52:29.444Z,0.00
2017-12-02T00:54:56.219Z,0.10
2017-12-02T00:57:23.736Z,0.10
2017-12-02T00:59:50.462Z,0.10
2017-12-02T01:02:17.206Z,0.20
2017-12-02T01:04:43.956Z,0.20
2017-12-02T01:07:10.696Z,0.30
2017-12-02T01:09:37.583Z,0.30
2017-12-02T01:12:04.327Z,0.30
2017-12-02T01:14:31.081Z,0.30
2017-12-02T01:16:57.819Z,0.40
2017-12-02T01:19:24.546Z,0.40
2017-12-02T01:21:51.305Z,0.40
2017-12-02T01:24:18.163Z,0.40
2017-12-02T01:26:44.874Z,0.40
2017-12-02T01:29:11.630Z,0.40
2017-12-02T01:31:38.379Z,0.40
2017-12-02T01:34:05.124Z,0.40
2017-12-02T01:36:31.873Z,0.30
2017-12-02T01:38:58.630Z,0.30
2017-12-02T01:41:25.382Z,0.30
2017-12-02T01:43:52.883Z,0.40
2017-12-02T01:46:19.642Z,0.30
2017-12-02T01:48:46.401Z,0.40
2017-12-02T01:51:13.906Z,0.50
2017-12-02T01:53:40.657Z,0.40
2017-12-02T01:56:07.382Z,0.50
2017-12-02T01:58:34.168Z,0.50
2017-12-02T02:01:00.900Z,0.50
2017-12-02T02:03:27.684Z,0.50
2017-12-02T02:05:54.424Z,0.50
2017-12-02T02:08:21.183Z,0.50
2017-12-02T02:10:47.930Z,0.60
2017-12-02T02:13:14.675Z,0.60
2017-12-02T02:15:41.419Z,0.50
2017-12-02T02:18:08.163Z,0.50
2017-12-02T02:20:35.100Z,0.50
2017-12-02T02:23:01.844Z,0.40
2017-12-02T02:25:28.578Z,0.40
2017-12-02T02:27:55.328Z,0.30
2017-12-02T02:30:22.068Z,0.30
2017-12-02T02:32:48.799Z,0.30
2017-12-02T02:35:15.541Z,0.30
2017-12-02T02:37:42.291Z,0.30
2017-12-02T02:40:09.048Z,0.40
2017-12-02T02:42:36.587Z,0.40
2017-12-02T02:45:03.336Z,0.40
2017-12-02T02:47:30.068Z,0.40
2017-12-02T02:49:56.809Z,0.50
2017-12-02T02:52:23.593Z,0.50
2017-12-02T02:54:50.325Z,0.50
2017-12-02T02:57:17.188Z,0.50
2017-12-02T02:59:43.969Z,0.50
2017-12-02T03:02:10.692Z,0.50
2017-12-02T03:04:37.446Z,0.50
2017-12-02T03:07:04.195Z,0.50
2017-12-02T03:09:31.711Z,0.50
2017-12-02T03:11:58.466Z,0.40
2017-12-02T03:14:25.226Z,0.50
2017-12-02T03:16:51.952Z,0.50
2017-12-02T03:19:18.755Z,0.50
2017-12-02T03:21:45.507Z,0.50
2017-12-02T03:24:12.260Z,0.50
2017-12-02T03:26:39.008Z,0.50
2017-12-02T03:29:05.748Z,0.50
2017-12-02T03:31:32.487Z,0.40
2017-12-02T03:33:59.344Z,0.40
2017-12-02T03:36:26.850Z,0.40
2017-12-02T03:38:53.616Z,0.30
2017-12-02T03:41:20.396Z,0.40
2017-12-02T03:43:47.896Z,0.40
2017-12-02T03:46:14.634Z,0.30
2017-12-02T03:48:41.379Z,0.40
2017-12-02T03:51:08.124Z,0.40
2017-12-02T03:53:34.860Z,0.40
2017-12-02T03:56:01.604Z,0.30
2017-12-02T03:58:28.387Z,0.30
2017-12-02T04:00:55.894Z,0.30
2017-12-02T04:03:22.651Z,0.30
2017-12-02T04:05:49.429Z,0.30
2017-12-02T04:08:16.186Z,0.30
2017-12-02T04:10:42.956Z,0.20
2017-12-02T04:13:09.668Z,0.20
2017-12-02T04:15:36.448Z,0.20
2017-12-02T04:18:03.198Z,0.10
2017-12-02T04:20:30.704Z,0.10
2017-12-02T04:22:57.431Z,0.00
2017-12-02T04:25:24.203Z,0.10
2017-12-02T04:27:50.956Z,0.10
2017-12-02T04:30:17.695Z,0.10
2017-12-02T04:32:44.427Z,0.10
2017-12-02T04:35:11.328Z,0.10
2017-12-02T04:37:38.060Z,0.10
2017-12-02T04:40:04.810Z,0.10
2017-12-02T04:42:31.554Z,0.10
2017-12-02T04:44:58.307Z,0.00
2017-12-02T04:47:25.036Z,0.00
2017-12-02T04:49:51.957Z,0.00
2017-12-02T04:52:18.726Z,0.00
2017-12-02T04:54:45.646Z,0.00
2017-12-02T04:57:13.151Z,-0.10
2017-12-02T04:59:39.882Z,-0.10
2017-12-02T05:02:06.640Z,0.00
2017-12-02T05:04:33.382Z,-0.10
2017-12-02T05:07:00.158Z,-0.10
2017-12-02T05:09:26.904Z,-0.20
2017-12-02T05:11:53.701Z,-0.20
2017-12-02T05:14:21.429Z,-0.20
2017-12-02T05:16:48.186Z,-0.20
2017-12-02T05:19:15.718Z,-0.10
2017-12-02T05:21:42.446Z,-0.20
2017-12-02T05:24:09.218Z,-0.10
2017-12-02T05:26:35.988Z,-0.10
2017-12-02T05:29:03.520Z,-0.10
2017-12-02T05:31:30.271Z,-0.20
2017-12-02T05:33:57.789Z,-0.20
2017-12-02T05:36:24.527Z,-0.20
2017-12-02T05:38:51.272Z,-0.20
2017-12-02T05:41:18.032Z,-0.30
2017-12-02T05:43:44.791Z,-0.30
2017-12-02T05:46:12.290Z,-0.30
2017-12-02T05:48:39.024Z,-0.30
2017-12-02T05:51:05.786Z,-0.30
2017-12-02T05:53:32.503Z,-0.30
2017-12-02T05:55:59.270Z,-0.20
2017-12-02T05:58:26.018Z,-0.30
2017-12-02T06:00:52.758Z,-0.30
2017-12-02T06:03:19.533Z,-0.30
2017-12-02T06:05:46.233Z,-0.30
2017-12-02T06:08:12.996Z,-0.30
2017-12-02T06:10:40.515Z,-0.40
2017-12-02T06:13:07.252Z,-0.40
2017-12-02T06:15:34.016Z,-0.40
2017-12-02T06:18:00.770Z,-0.40
2017-12-02T06:20:28.324Z,-0.40
2017-12-02T06:22:55.052Z,-0.40
2017-12-02T06:25:23.337Z,-0.50
2017-12-02T06:27:50.212Z,-0.40
2017-12-02T06:30:16.939Z,-0.40
2017-12-02T06:32:44.443Z,-0.30
2017-12-02T06:35:11.245Z,-0.40
2017-12-02T06:37:37.988Z,-0.30
2017-12-02T06:40:04.721Z,-0.40
2017-12-02T06:42:31.503Z,-0.30
2017-12-02T06:44:58.284Z,-0.30
2017-12-02T06:47:25.940Z,-0.40
2017-12-02T06:49:53.477Z,-0.40
2017-12-02T06:52:20.215Z,-0.50
2017-12-02T06:54:46.965Z,-0.50
2017-12-02T06:57:15.237Z,-0.50
2017-12-02T06:59:42.960Z,-0.50
2017-12-02T07:02:09.714Z,-0.50
2017-12-02T07:04:36.512Z,-0.50
2017-12-02T07:07:04.076Z,-0.50
2017-12-02T07:09:31.606Z,-0.50
2017-12-02T07:11:58.337Z,-0.50
2017-12-02T07:14:25.902Z,-0.50
2017-12-02T07:16:53.463Z,-0.50
2017-12-02T07:19:20.171Z,-0.50
2017-12-02T07:21:46.914Z,-0.40
2017-12-02T07:24:13.691Z,-0.50
2017-12-02T07:26:41.183Z,-0.40
2017-12-02T07:29:07.948Z,-0.50
2017-12-02T07:31:34.860Z,-0.50
2017-12-02T07:34:01.584Z,-0.40
2017-12-02T07:36:28.361Z,-0.40
2017-12-02T07:38:55.082Z,-0.40
2017-12-02T07:41:21.852Z,-0.40
2017-12-02T07:43:48.601Z,-0.40
2017-12-02T07:46:15.457Z,-0.40
2017-12-02T07:48:42.977Z,-0.40
2017-12-02T07:51:09.759Z,-0.50
2017-12-02T07:53:37.277Z,-0.50
2017-12-02T07:56:04.020Z,-0.50
2017-12-02T07:58:30.775Z,-0.50
2017-12-02T08:00:57.528Z,-0.50
2017-12-02T08:03:25.072Z,-0.50
2017-12-02T08:05:51.853Z,-0.50
2017-12-02T08:08:18.626Z,-0.40
2017-12-02T08:10:45.386Z,-0.50
2017-12-02T08:13:12.156Z,-0.50
2017-12-02T08:15:39.893Z,-0.50
2017-12-02T08:18:06.650Z,-0.60
2017-12-02T08:20:33.426Z,-0.50
2017-12-02T08:23:00.158Z,-0.50
2017-12-02T08:25:26.912Z,-0.50
2017-12-02T08:27:53.666Z,-0.60
2017-12-02T08:30:20.437Z,-0.60
2017-12-02T08:32:47.939Z,-0.60
2017-12-02T08:35:14.707Z,-0.70
2017-12-02T08:37:41.433Z,-0.60
2017-12-02T08:40:08.263Z,-0.60
2017-12-02T08:42:35.007Z,-0.50
2017-12-02T08:45:01.934Z,-0.50
2017-12-02T08:47:28.696Z,-0.50
2017-12-02T08:49:55.451Z,-0.50
2017-12-02T08:52:22.218Z,-0.50
2017-12-02T08:54:49.736Z,-0.50
2017-12-02T08:57:16.480Z,-0.50
2017-12-02T08:59:43.240Z,-0.50
2017-12-02T09:02:10.738Z,-0.50
2017-12-02T09:04:37.505Z,-0.60
2017-12-02T09:07:04.272Z,-0.50
2017-12-02T09:09:30.999Z,-0.40
2017-12-02T09:11:57.787Z,-0.40
2017-12-02T09:14:24.544Z,-0.40
2017-12-02T09:16:51.302Z,-0.40
2017-12-02T09:19:18.051Z,-0.40
2017-12-02T09:21:44.828Z,-0.40
2017-12-02T09:24:12.335Z,-0.30
2017-12-02T09:26:39.189Z,-0.40
2017-12-02T09:29:05.938Z,-0.30
2017-12-02T09:31:32.670Z,-0.30
2017-12-02T09:33:59.480Z,-0.20
2017-12-02T09:36:26.217Z,-0.20
2017-12-02T09:38:52.982Z,-0.10
2017-12-02T09:41:19.737Z,0.00
2017-12-02T09:43:46.494Z,0.00
2017-12-02T09:46:13.220Z,-0.10
2017-12-02T09:48:39.979Z,-0.10
2017-12-02T09:51:07.514Z,0.00
2017-12-02T09:53:34.349Z,-0.10
2017-12-02T09:56:01.096Z,0.00
2017-12-02T09:58:27.858Z,0.00
2017-12-02T10:00:55.392Z,0.00
2017-12-02T10:03:22.143Z,0.00
2017-12-02T10:05:48.899Z,0.10
2017-12-02T10:08:16.403Z,0.10
2017-12-02T10:10:43.186Z,0.00
2017-12-02T10:13:10.730Z,0.10
2017-12-02T10:15:37.480Z,0.00
2017-12-02T10:18:04.991Z,0.10
2017-12-02T10:20:31.757Z,0.00
2017-12-02T10:22:58.511Z,0.10
2017-12-02T10:25:25.263Z,0.10
2017-12-02T10:27:52.805Z,0.30
2017-12-02T10:30:19.541Z,0.20
2017-12-02T10:32:46.296Z,0.30
2017-12-02T10:35:13.790Z,0.40
2017-12-02T10:37:40.527Z,0.30
2017-12-02T10:40:07.271Z,0.50
2017-12-02T10:42:34.026Z,0.60
2017-12-02T10:45:00.764Z,0.70
2017-12-02T10:47:27.509Z,0.70
2017-12-02T10:49:54.252Z,0.70
2017-12-02T10:52:21.010Z,0.80
2017-12-02T10:54:47.799Z,0.80
2017-12-02T10:57:14.731Z,0.80
2017-12-02T10:59:41.490Z,0.80
2017-12-02T11:02:08.241Z,0.80
2017-12-02T11:04:34.978Z,0.80
2017-12-02T11:07:01.740Z,0.80
2017-12-02T11:09:28.877Z,0.80
2017-12-02T11:11:56.453Z,0.90
2017-12-02T11:14:23.210Z,0.80
2017-12-02T11:16:50.732Z,1.00
2017-12-02T11:19:17.468Z,0.90
2017-12-02T11:21:44.243Z,1.00
2017-12-02T11:24:10.984Z,1.00
2017-12-02T11:26:38.510Z,0.90
2017-12-02T11:29:05.280Z,0.90
2017-12-02T11:31:32.034Z,0.90
2017-12-02T11:33:58.817Z,0.90
2017-12-02T11:36:25.543Z,0.90
2017-12-02T11:38:52.327Z,0.90
2017-12-02T11:41:19.084Z,0.80
2017-12-02T11:43:45.833Z,0.90
2017-12-02T11:46:12.581Z,0.90
2017-12-02T11:48:39.410Z,0.80
2017-12-02T11:51:06.981Z,0.90
2017-12-02T11:53:34.484Z,0.80
2017-12-02T11:56:01.261Z,0.80
2017-12-02T11:58:28.010Z,0.90
2017-12-02T12:00:54.769Z,0.90
2017-12-02T12:03:21.515Z,0.90
2017-12-02T12:05:48.263Z,0.90
2017-12-02T12:08:15.191Z,0.90
2017-12-02T12:10:41.957Z,0.90
2017-12-02T12:13:08.703Z,0.90
2017-12-02T12:15:35.451Z,0.90
2017-12-02T12:18:02.244Z,0.80
2017-12-02T12:20:28.979Z,0.90
2017-12-02T12:22:55.814Z,0.90
2017-12-02T12:25:22.580Z,0.90
2017-12-02T12:27:49.315Z,0.90
2017-12-02T12:30:16.070Z,0.80
2017-12-02T12:32:42.802Z,0.80
2017-12-02T12:35:09.565Z,0.90
2017-12-02T12:37:36.313Z,0.80
2017-12-02T12:40:03.867Z,0.80
2017-12-02T12:42:30.634Z,0.70
2017-12-02T12:44:58.161Z,0.80
2017-12-02T12:47:24.937Z,0.80
2017-12-02T12:49:51.666Z,0.90
2017-12-02T12:52:18.451Z,0.80
2017-12-02T12:54:45.200Z,0.80
2017-12-02T12:57:11.953Z,0.80
2017-12-02T12:59:39.063Z,0.80
2017-12-02T13:02:05.796Z,0.80
2017-12-02T13:04:32.560Z,0.80
2017-12-02T13:06:59.291Z,0.80
2017-12-02T13:09:26.046Z,0.80
2017-12-02T13:11:52.877Z,0.80
2017-12-02T13:14:19.704Z,0.80
2017-12-02T13:16:46.447Z,0.90
2017-12-02T13:19:13.188Z,0.90
2017-12-02T13:21:39.962Z,0.90
2017-12-02T13:24:06.725Z,0.90
2017-12-02T13:26:33.554Z,1.00
2017-12-02T13:29:01.095Z,1.00
2017-12-02T13:31:27.861Z,0.90
2017-12-02T13:33:55.364Z,1.10
2017-12-02T13:36:22.125Z,1.00
2017-12-02T13:38:49.627Z,1.10
2017-12-02T13:41:16.402Z,1.00
2017-12-02T13:43:43.141Z,0.90
2017-12-02T13:46:09.884Z,1.00
2017-12-02T13:48:36.638Z,1.00
2017-12-02T13:51:03.422Z,1.10
2017-12-02T13:53:30.177Z,1.10
2017-12-02T13:55:56.928Z,1.10
2017-12-02T13:58:23.666Z,1.10
2017-12-02T14:00:50.480Z,1.10
2017-12-02T14:03:17.980Z,1.10
2017-12-02T14:05:44.709Z,1.00
2017-12-02T14:08:11.456Z,1.00
2017-12-02T14:10:38.195Z,1.00
2017-12-02T14:13:05.008Z,1.00
2017-12-02T14:15:31.749Z,1.00
2017-12-02T14:17:58.517Z,1.00
2017-12-02T14:20:25.254Z,1.00
2017-12-02T14:22:51.975Z,1.10
2017-12-02T14:25:18.740Z,1.10
2017-12-02T14:27:45.480Z,1.10
2017-12-02T14:30:12.241Z,1.10
2017-12-02T14:32:40.468Z,1.00
2017-12-02T14:35:07.230Z,1.00
2017-12-02T14:37:34.008Z,1.10
2017-12-02T14:40:01.532Z,1.10
2017-12-02T14:42:28.313Z,1.00
2017-12-02T14:44:55.073Z,1.00
2017-12-02T14:47:21.803Z,1.00
2017-12-02T14:49:48.564Z,1.10
2017-12-02T14:52:15.304Z,1.00
2017-12-02T14:54:42.041Z,1.00
2017-12-02T14:57:08.951Z,1.00
2017-12-02T14:59:35.677Z,1.00
2017-12-02T15:02:02.440Z,1.00
2017-12-02T15:04:29.167Z,0.90
2017-12-02T15:06:55.917Z,0.90
2017-12-02T15:09:22.653Z,1.00
2017-12-02T15:11:49.473Z,1.00
2017-12-02T15:14:17.236Z,1.00
2017-12-02T15:16:44.748Z,1.10
2017-12-02T15:19:11.488Z,1.00
2017-12-02T15:21:38.288Z,1.00
2017-12-02T15:24:04.995Z,0.90
2017-12-02T15:26:31.765Z,0.90
2017-12-02T15:28:59.261Z,0.90
2017-12-02T15:31:25.988Z,0.80
2017-12-02T15:33:52.745Z,0.90
2017-12-02T15:36:19.468Z,0.80
2017-12-02T15:38:46.248Z,0.80
2017-12-02T15:41:13.755Z,0.70
2017-12-02T15:43:40.500Z,0.70
2017-12-02T15:46:07.260Z,0.70
2017-12-02T15:48:34.037Z,0.70
2017-12-02T15:51:01.552Z,0.60
2017-12-02T15:53:28.388Z,0.60
2017-12-02T15:55:55.190Z,0.70
2017-12-02T15:58:22.707Z,0.70
2017-12-02T16:00:49.478Z,0.60
2017-12-02T16:03:17.019Z,0.70
2017-12-02T16:05:44.546Z,0.70
2017-12-02T16:08:11.305Z,0.60
2017-12-02T16:10:38.066Z,0.70
2017-12-02T16:13:04.851Z,0.70
2017-12-02T16:15:31.556Z,0.70
2017-12-02T16:17:58.309Z,0.70
2017-12-02T16:20:25.079Z,0.70
2017-12-02T16:22:52.072Z,0.80
2017-12-02T16:25:19.604Z,0.80
2017-12-02T16:27:46.344Z,0.70
2017-12-02T16:30:13.885Z,0.80
2017-12-02T16:32:40.631Z,0.70
2017-12-02T16:35:07.355Z,0.80
2017-12-02T16:37:34.118Z,0.80
2017-12-02T16:40:01.639Z,0.80
2017-12-02T16:42:28.402Z,0.70
2017-12-02T16:44:55.165Z,0.80
2017-12-02T16:47:22.668Z,0.70
2017-12-02T16:49:49.464Z,0.70
2017-12-02T16:52:17.175Z,0.80
2017-12-02T16:54:43.918Z,0.70
2017-12-02T16:57:10.648Z,0.80
2017-12-02T16:59:37.414Z,0.80
2017-12-02T17:02:04.149Z,0.70
2017-12-02T17:04:30.896Z,0.70
2017-12-02T17:06:57.827Z,0.70
2017-12-02T17:09:24.611Z,0.80
2017-12-02T17:11:52.111Z,0.80
2017-12-02T17:14:18.852Z,0.70
2017-12-02T17:16:45.660Z,0.80
2017-12-02T17:19:12.344Z,0.80
2017-12-02T17:21:39.098Z,0.80
2017-12-02T17:24:05.847Z,0.80
2017-12-02T17:26:33.387Z,0.80
2017-12-02T17:29:00.129Z,0.80
2017-12-02T17:31:28.415Z,0.80
2017-12-02T17:33:55.153Z,0.80
2017-12-02T17:36:21.901Z,0.90
2017-12-02T17:38:49.436Z,0.90
2017-12-02T17:41:16.146Z,0.80
2017-12-02T17:43:42.900Z,0.90
2017-12-02T17:46:09.643Z,0.90
2017-12-02T17:48:36.427Z,0.90
2017-12-02T17:51:03.942Z,1.00
2017-12-02T17:53:30.693Z,0.90
2017-12-02T17:55:57.436Z,1.00
2017-12-02T17:58:24.182Z,1.00
2017-12-02T18:00:50.911Z,1.00
2017-12-02T18:03:17.699Z,1.00
2017-12-02T18:05:44.442Z,1.00
2017-12-02T18:08:11.218Z,1.00
2017-12-02T18:10:37.977Z,1.00
2017-12-02T18:13:04.716Z,1.00
2017-12-02T18:15:31.489Z,1.00
2017-12-02T18:17:58.250Z,1.00
2017-12-02T18:20:24.997Z,1.00
2017-12-02T18:22:51.740Z,1.00
2017-12-02T18:25:18.487Z,1.00
2017-12-02T18:27:45.217Z,1.10
2017-12-02T18:30:12.024Z,1.10
2017-12-02T18:32:39.497Z,1.10
2017-12-02T18:35:06.255Z,1.10
2017-12-02T18:37:32.992Z,1.20
2017-12-02T18:39:59.794Z,1.20
2017-12-02T18:42:26.533Z,1.20
2017-12-02T18:44:53.617Z,1.20
2017-12-02T18:47:20.364Z,1.20
2017-12-02T18:49:47.230Z,1.20
2017-12-02T18:52:14.773Z,1.20
2017-12-02T18:54:41.507Z,1.20
2017-12-02T18:57:08.255Z,1.20
2017-12-02T18:59:35.028Z,1.30
2017-12-02T19:02:01.790Z,1.30
2017-12-02T19:04:30.205Z,1.30
2017-12-02T19:06:56.994Z,1.30
2017-12-02T19:09:24.477Z,1.30
2017-12-02T19:11:51.233Z,1.30
2017-12-02T19:14:17.986Z,1.30
2017-12-02T19:16:44.822Z,1.30
2017-12-02T19:19:11.570Z,1.30
2017-12-02T19:21:38.341Z,1.30
2017-12-02T19:24:05.098Z,1.30
2017-12-02T19:26:31.857Z,1.30
2017-12-02T19:28:58.604Z,1.30
2017-12-02T19:31:25.333Z,1.40
2017-12-02T19:33:52.118Z,1.40
2017-12-02T19:36:18.848Z,1.40
2017-12-02T19:38:45.624Z,1.30
2017-12-02T19:41:12.359Z,1.30
2017-12-02T19:43:39.112Z,1.30
2017-12-02T19:46:05.873Z,1.20
2017-12-02T19:48:32.625Z,1.20
2017-12-02T19:50:59.363Z,1.20
2017-12-02T19:53:26.140Z,1.20
2017-12-02T19:55:53.732Z,1.10
2017-12-02T19:58:20.478Z,1.10
2017-12-02T20:00:47.231Z,1.20
2017-12-02T20:03:13.958Z,1.20
2017-12-02T20:05:40.743Z,1.20
2017-12-02T20:08:07.458Z,1.20
2017-12-02T20:10:34.195Z,1.20
2017-12-02T20:13:01.082Z,1.20
2017-12-02T20:15:28.598Z,1.30
2017-12-02T20:17:55.323Z,1.30
2017-12-02T20:20:22.082Z,1.30
2017-12-02T20:22:49.636Z,1.40
2017-12-02T20:25:16.346Z,1.30
2017-12-02T20:27:43.087Z,1.40
2017-12-02T20:30:09.842Z,1.30
2017-12-02T20:32:36.598Z,1.30
2017-12-02T20:35:03.453Z,1.30
2017-12-02T20:37:30.272Z,1.30
2017-12-02T20:39:57.032Z,1.20
2017-12-02T20:42:23.773Z,1.20
2017-12-02T20:44:51.276Z,1.20
2017-12-02T20:47:18.013Z,1.10
2017-12-02T20:49:44.779Z,1.10
2017-12-02T20:52:11.525Z,1.10
2017-12-02T20:54:39.791Z,1.10
2017-12-02T20:57:06.612Z,1.10
2017-12-02T20:59:33.343Z,1.10
2017-12-02T21:02:00.122Z,1.10
2017-12-02T21:04:26.843Z,1.10
2017-12-02T21:06:53.582Z,1.10
2017-12-02T21:09:20.343Z,1.10
2017-12-02T21:11:47.068Z,1.10
2017-12-02T21:14:13.811Z,1.10
2017-12-02T21:16:40.708Z,1.10
2017-12-02T21:19:07.490Z,1.10
2017-12-02T21:21:34.227Z,1.10
2017-12-02T21:24:01.048Z,1.10
2017-12-02T21:26:27.787Z,1.10
2017-12-02T21:28:54.543Z,1.10
2017-12-02T21:31:21.298Z,1.10
2017-12-02T21:33:48.066Z,1.10
2017-12-02T21:36:15.556Z,1.10
2017-12-02T21:38:42.320Z,1.00
2017-12-02T21:41:09.085Z,1.10
2017-12-02T21:43:36.591Z,1.00
2017-12-02T21:46:03.392Z,1.00
2017-12-02T21:48:30.909Z,1.00
2017-12-02T21:50:57.664Z,1.00
2017-12-02T21:53:24.401Z,1.00
2017-12-02T21:55:51.230Z,1.00
2017-12-02T21:58:17.983Z,1.00
2017-12-02T22:00:44.719Z,1.00
2017-12-02T22:03:12.981Z,1.00
2017-12-02T22:05:39.771Z,1.00
2017-12-02T22:08:06.551Z,1.00
2017-12-02T22:10:33.285Z,1.10
2017-12-02T22:13:00.065Z,1.10
2017-12-02T22:15:27.615Z,1.20
2017-12-02T22:17:55.940Z,1.10
2017-12-02T22:20:22.681Z,1.10
2017-12-02T22:22:49.428Z,1.20
2017-12-02T22:25:16.188Z,1.20
2017-12-02T22:27:42.937Z,1.20
2017-12-02T22:30:09.726Z,1.20
2017-12-02T22:32:36.484Z,1.20
2017-12-02T22:35:03.409Z,1.10
2017-12-02T22:37:30.172Z,1.20
2017-12-02T22:39:56.883Z,1.10
2017-12-02T22:42:23.643Z,1.10
2017-12-02T22:44:50.410Z,1.10
2017-12-02T22:47:17.149Z,1.10
2017-12-02T22:49:43.871Z,1.10
2017-12-02T22:52:10.649Z,1.10
2017-12-02T22:54:38.258Z,1.10
2017-12-02T22:57:05.029Z,1.00
2017-12-02T22:59:31.744Z,1.10
2017-12-02T23:01:58.508Z,1.10
2017-12-02T23:04:25.255Z,1.10
2017-12-02T23:06:52.022Z,1.10
2017-12-02T23:09:19.523Z,1.10
2017-12-02T23:11:46.301Z,1.10
2017-12-02T23:14:13.034Z,1.10
2017-12-02T23:16:39.771Z,1.20
2017-12-02T23:19:06.714Z,1.20
2017-12-02T23:21:33.443Z,1.10
2017-12-02T23:24:01.023Z,1.20
2017-12-02T23:26:28.525Z,1.20
2017-12-02T23:28:55.530Z,1.10
2017-12-02T23:31:23.028Z,1.20
2017-12-02T23:33:49.798Z,1.10
2017-12-02T23:36:16.555Z,1.20
2017-12-02T23:38:43.312Z,1.20
2017-12-02T23:41:10.804Z,1.20
2017-12-02T23:43:37.572Z,1.20
2017-12-02T23:46:04.312Z,1.20
2017-12-02T23:48:31.151Z,1.20
2017-12-02T23:50:58.696Z,1.20
2017-12-02T23:53:25.428Z,1.10
2017-12-02T23:55:52.175Z,1.10
2017-12-02T23:58:18.926Z,1.20
